sensor_id;sensor_type;location;lat;lon;timestamp;noise_LAeq;noise_LA_min;noise_LA_max;noise_LA01;noise_LA95
66463;Laerm;56827;52.178;4.500;2023-06-14T00:00:11;34.36;30.65;44.67;;
66463;Laerm;56827;52.178;4.500;2023-06-14T00:00:22;34.29;30.93;45.34;;
66463;Laerm;56827;52.178;4.500;2023-06-14T00:00:32;33.17;31.48;43.48;;
66463;Laerm;56827;52.178;4.500;2023-06-14T00:00:44;33.32;31.25;40.19;;
66463;Laerm;56827;52.178;4.500;2023-06-14T00:00:54;32.79;31.05;41.24;;
66463;Laerm;56827;52.178;4.500;2023-06-14T00:01:06;33.03;30.77;42.76;;
66463;Laerm;56827;52.178;4.500;2023-06-14T00:01:17;33.52;31.77;42.36;;
66463;Laerm;56827;52.178;4.500;2023-06-14T00:01:30;34.52;31.93;42.86;;
66463;Laerm;56827;52.178;4.500;2023-06-14T00:01:42;33.88;31.46;40.33;;
66463;Laerm;56827;52.178;4.500;2023-06-14T00:01:55;36.11;32.30;46.91;;
66463;Laerm;56827;52.178;4.500;2023-06-14T00:02:05;33.52;32.10;38.26;;
66463;Laerm;56827;52.178;4.500;2023-06-14T00:02:18;33.18;31.73;37.54;;
66463;Laerm;56827;52.178;4.500;2023-06-14T00:02:28;33.19;31.09;41.05;;
66463;Laerm;56827;52.178;4.500;2023-06-14T00:02:39;33.10;30.93;42.93;;
66463;Laerm;56827;52.178;4.500;2023-06-14T00:02:49;32.88;30.94;43.60;;
66463;Laerm;56827;52.178;4.500;2023-06-14T00:02:59;32.29;30.97;33.76;;
66463;Laerm;56827;52.178;4.500;2023-06-14T00:03:10;32.25;30.47;41.41;;
66463;Laerm;56827;52.178;4.500;2023-06-14T00:03:21;32.24;30.82;38.02;;
66463;Laerm;56827;52.178;4.500;2023-06-14T00:03:32;33.67;31.32;39.66;;
66463;Laerm;56827;52.178;4.500;2023-06-14T00:03:42;33.19;30.95;41.77;;
66463;Laerm;56827;52.178;4.500;2023-06-14T00:03:53;34.34;30.50;42.64;;
66463;Laerm;56827;52.178;4.500;2023-06-14T00:04:04;43.42;31.22;52.49;;
66463;Laerm;56827;52.178;4.500;2023-06-14T00:04:19;46.03;31.31;51.92;;
66463;Laerm;56827;52.178;4.500;2023-06-14T00:04:30;43.20;31.44;49.72;;
66463;Laerm;56827;52.178;4.500;2023-06-14T00:04:40;43.81;30.98;51.75;;
66463;Laerm;56827;52.178;4.500;2023-06-14T00:04:51;41.78;30.74;50.13;;
66463;Laerm;56827;52.178;4.500;2023-06-14T00:05:01;36.11;30.21;45.74;;
66463;Laerm;56827;52.178;4.500;2023-06-14T00:05:12;32.19;30.67;35.52;;
66463;Laerm;56827;52.178;4.500;2023-06-14T00:05:23;32.30;30.70;39.29;;
66463;Laerm;56827;52.178;4.500;2023-06-14T00:05:34;31.88;30.51;36.42;;
66463;Laerm;56827;52.178;4.500;2023-06-14T00:05:48;32.55;30.05;42.49;;
66463;Laerm;56827;52.178;4.500;2023-06-14T00:05:59;32.44;30.46;36.45;;
66463;Laerm;56827;52.178;4.500;2023-06-14T00:06:09;32.95;31.26;45.70;;
66463;Laerm;56827;52.178;4.500;2023-06-14T00:06:19;33.11;31.48;34.73;;
66463;Laerm;56827;52.178;4.500;2023-06-14T00:06:29;33.80;31.73;37.17;;
66463;Laerm;56827;52.178;4.500;2023-06-14T00:06:40;33.15;31.62;37.04;;
66463;Laerm;56827;52.178;4.500;2023-06-14T00:06:51;33.62;31.42;36.68;;
66463;Laerm;56827;52.178;4.500;2023-06-14T00:07:02;34.14;31.96;36.63;;
66463;Laerm;56827;52.178;4.500;2023-06-14T00:07:12;33.65;31.48;37.37;;
66463;Laerm;56827;52.178;4.500;2023-06-14T00:07:33;33.98;31.20;40.49;;
66463;Laerm;56827;52.178;4.500;2023-06-14T00:07:43;33.10;31.42;37.22;;
66463;Laerm;56827;52.178;4.500;2023-06-14T00:07:54;32.92;31.63;39.12;;
66463;Laerm;56827;52.178;4.500;2023-06-14T00:08:04;32.68;31.24;33.99;;
66463;Laerm;56827;52.178;4.500;2023-06-14T00:08:17;33.20;31.24;34.55;;
66463;Laerm;56827;52.178;4.500;2023-06-14T00:08:28;33.83;31.60;36.08;;
66463;Laerm;56827;52.178;4.500;2023-06-14T00:08:39;33.99;31.58;37.35;;
66463;Laerm;56827;52.178;4.500;2023-06-14T00:08:50;33.99;31.33;43.03;;
66463;Laerm;56827;52.178;4.500;2023-06-14T00:09:01;37.48;31.17;47.02;;
66463;Laerm;56827;52.178;4.500;2023-06-14T00:09:12;43.59;31.46;51.05;;
66463;Laerm;56827;52.178;4.500;2023-06-14T00:09:27;43.80;31.16;53.96;;
66463;Laerm;56827;52.178;4.500;2023-06-14T00:09:37;38.67;31.53;48.03;;
66463;Laerm;56827;52.178;4.500;2023-06-14T00:09:48;44.29;32.41;52.45;;
66463;Laerm;56827;52.178;4.500;2023-06-14T00:09:58;33.46;31.57;35.58;;
66463;Laerm;56827;52.178;4.500;2023-06-14T00:10:09;35.89;31.19;47.28;;
66463;Laerm;56827;52.178;4.500;2023-06-14T00:10:19;32.55;30.83;35.60;;
66463;Laerm;56827;52.178;4.500;2023-06-14T00:10:29;33.18;30.71;39.41;;
66463;Laerm;56827;52.178;4.500;2023-06-14T00:10:42;32.88;31.03;36.94;;
66463;Laerm;56827;52.178;4.500;2023-06-14T00:10:52;33.23;30.63;44.45;;
66463;Laerm;56827;52.178;4.500;2023-06-14T00:11:03;31.96;30.31;36.23;;
66463;Laerm;56827;52.178;4.500;2023-06-14T00:11:13;33.70;30.86;50.17;;
66463;Laerm;56827;52.178;4.500;2023-06-14T00:11:23;32.80;30.35;41.23;;
66463;Laerm;56827;52.178;4.500;2023-06-14T00:11:34;32.02;30.20;35.12;;
66463;Laerm;56827;52.178;4.500;2023-06-14T00:11:44;32.24;30.31;39.25;;
66463;Laerm;56827;52.178;4.500;2023-06-14T00:11:54;32.20;30.45;34.21;;
66463;Laerm;56827;52.178;4.500;2023-06-14T00:12:05;32.23;30.61;35.05;;
66463;Laerm;56827;52.178;4.500;2023-06-14T00:12:16;32.79;30.83;36.55;;
66463;Laerm;56827;52.178;4.500;2023-06-14T00:12:26;32.05;30.78;37.67;;
66463;Laerm;56827;52.178;4.500;2023-06-14T00:12:36;32.06;30.81;33.61;;
66463;Laerm;56827;52.178;4.500;2023-06-14T00:12:46;32.26;30.73;33.56;;
66463;Laerm;56827;52.178;4.500;2023-06-14T00:12:57;32.57;31.24;36.70;;
66463;Laerm;56827;52.178;4.500;2023-06-14T00:13:09;32.38;31.18;33.76;;
66463;Laerm;56827;52.178;4.500;2023-06-14T00:13:20;33.19;30.37;39.41;;
66463;Laerm;56827;52.178;4.500;2023-06-14T00:13:30;33.74;31.17;38.67;;
66463;Laerm;56827;52.178;4.500;2023-06-14T00:13:41;33.90;31.04;41.75;;
66463;Laerm;56827;52.178;4.500;2023-06-14T00:13:52;33.44;31.75;40.04;;
66463;Laerm;56827;52.178;4.500;2023-06-14T00:14:02;33.36;31.32;40.02;;
66463;Laerm;56827;52.178;4.500;2023-06-14T00:14:13;32.65;30.87;34.51;;
66463;Laerm;56827;52.178;4.500;2023-06-14T00:14:24;34.19;31.82;37.80;;
66463;Laerm;56827;52.178;4.500;2023-06-14T00:14:34;34.47;32.54;36.78;;
66463;Laerm;56827;52.178;4.500;2023-06-14T00:14:44;34.27;32.67;35.95;;
66463;Laerm;56827;52.178;4.500;2023-06-14T00:14:55;34.22;32.27;37.04;;
66463;Laerm;56827;52.178;4.500;2023-06-14T00:15:06;32.84;31.19;35.62;;
66463;Laerm;56827;52.178;4.500;2023-06-14T00:15:16;37.59;33.41;39.98;;
66463;Laerm;56827;52.178;4.500;2023-06-14T00:15:26;33.69;31.67;36.67;;
66463;Laerm;56827;52.178;4.500;2023-06-14T00:15:37;33.92;32.00;35.41;;
66463;Laerm;56827;52.178;4.500;2023-06-14T00:15:47;37.11;31.11;46.17;;
66463;Laerm;56827;52.178;4.500;2023-06-14T00:15:57;35.01;31.93;44.47;;
66463;Laerm;56827;52.178;4.500;2023-06-14T00:16:08;36.72;32.22;41.49;;
66463;Laerm;56827;52.178;4.500;2023-06-14T00:16:18;35.59;32.74;47.74;;
66463;Laerm;56827;52.178;4.500;2023-06-14T00:16:29;44.40;33.38;52.69;;
66463;Laerm;56827;52.178;4.500;2023-06-14T00:16:40;45.85;35.36;53.58;;
66463;Laerm;56827;52.178;4.500;2023-06-14T00:16:52;45.54;37.55;51.94;;
66463;Laerm;56827;52.178;4.500;2023-06-14T00:17:02;38.86;35.76;48.52;;
66463;Laerm;56827;52.178;4.500;2023-06-14T00:17:13;40.49;33.24;49.98;;
66463;Laerm;56827;52.178;4.500;2023-06-14T00:17:27;40.69;33.46;50.54;;
66463;Laerm;56827;52.178;4.500;2023-06-14T00:17:40;44.91;35.00;52.02;;
66463;Laerm;56827;52.178;4.500;2023-06-14T00:17:50;43.08;33.18;50.29;;
66463;Laerm;56827;52.178;4.500;2023-06-14T00:18:01;35.36;32.12;44.38;;
66463;Laerm;56827;52.178;4.500;2023-06-14T00:18:11;36.49;33.91;40.19;;
66463;Laerm;56827;52.178;4.500;2023-06-14T00:18:22;33.97;32.65;37.64;;
66463;Laerm;56827;52.178;4.500;2023-06-14T00:18:36;37.51;32.74;41.11;;
66463;Laerm;56827;52.178;4.500;2023-06-14T00:18:46;42.80;40.31;44.64;;
66463;Laerm;56827;52.178;4.500;2023-06-14T00:18:57;41.18;38.41;44.32;;
66463;Laerm;56827;52.178;4.500;2023-06-14T00:19:08;38.45;36.74;40.63;;
66463;Laerm;56827;52.178;4.500;2023-06-14T00:19:20;37.25;34.48;39.92;;
66463;Laerm;56827;52.178;4.500;2023-06-14T00:19:31;37.24;34.70;42.35;;
66463;Laerm;56827;52.178;4.500;2023-06-14T00:19:42;37.75;35.12;42.28;;
66463;Laerm;56827;52.178;4.500;2023-06-14T00:19:53;35.39;33.05;39.44;;
66463;Laerm;56827;52.178;4.500;2023-06-14T00:20:04;35.55;34.00;39.67;;
66463;Laerm;56827;52.178;4.500;2023-06-14T00:20:17;38.32;35.50;47.41;;
66463;Laerm;56827;52.178;4.500;2023-06-14T00:20:29;35.00;32.57;37.89;;
66463;Laerm;56827;52.178;4.500;2023-06-14T00:20:40;33.76;32.33;37.43;;
66463;Laerm;56827;52.178;4.500;2023-06-14T00:20:51;39.60;32.27;44.73;;
66463;Laerm;56827;52.178;4.500;2023-06-14T00:21:02;40.26;37.89;44.04;;
66463;Laerm;56827;52.178;4.500;2023-06-14T00:21:12;39.64;35.06;42.59;;
66463;Laerm;56827;52.178;4.500;2023-06-14T00:21:22;35.13;33.40;37.59;;
66463;Laerm;56827;52.178;4.500;2023-06-14T00:21:32;35.11;33.61;38.79;;
66463;Laerm;56827;52.178;4.500;2023-06-14T00:21:43;35.96;32.79;45.94;;
66463;Laerm;56827;52.178;4.500;2023-06-14T00:21:53;34.77;32.88;37.39;;
66463;Laerm;56827;52.178;4.500;2023-06-14T00:22:03;43.33;35.82;46.56;;
66463;Laerm;56827;52.178;4.500;2023-06-14T00:22:14;42.31;37.98;45.44;;
66463;Laerm;56827;52.178;4.500;2023-06-14T00:22:24;37.48;35.85;39.23;;
66463;Laerm;56827;52.178;4.500;2023-06-14T00:22:35;35.82;33.36;37.95;;
66463;Laerm;56827;52.178;4.500;2023-06-14T00:22:46;43.27;34.22;55.25;;
66463;Laerm;56827;52.178;4.500;2023-06-14T00:22:58;35.48;33.40;47.55;;
66463;Laerm;56827;52.178;4.500;2023-06-14T00:23:08;35.25;33.83;38.00;;
66463;Laerm;56827;52.178;4.500;2023-06-14T00:23:19;35.06;33.35;36.69;;
66463;Laerm;56827;52.178;4.500;2023-06-14T00:23:29;34.37;32.68;37.16;;
66463;Laerm;56827;52.178;4.500;2023-06-14T00:23:39;39.31;32.77;43.04;;
66463;Laerm;56827;52.178;4.500;2023-06-14T00:23:50;37.76;33.49;41.82;;
66463;Laerm;56827;52.178;4.500;2023-06-14T00:24:00;36.76;33.31;47.32;;
66463;Laerm;56827;52.178;4.500;2023-06-14T00:24:10;37.97;35.63;40.72;;
66463;Laerm;56827;52.178;4.500;2023-06-14T00:24:21;38.07;36.23;39.58;;
66463;Laerm;56827;52.178;4.500;2023-06-14T00:24:31;38.97;37.46;40.81;;
66463;Laerm;56827;52.178;4.500;2023-06-14T00:24:41;38.12;35.51;51.23;;
66463;Laerm;56827;52.178;4.500;2023-06-14T00:24:51;36.56;34.13;39.84;;
66463;Laerm;56827;52.178;4.500;2023-06-14T00:25:02;39.18;36.62;45.66;;
66463;Laerm;56827;52.178;4.500;2023-06-14T00:25:12;39.83;35.41;46.58;;
66463;Laerm;56827;52.178;4.500;2023-06-14T00:25:23;42.75;34.23;50.95;;
66463;Laerm;56827;52.178;4.500;2023-06-14T00:25:33;45.03;33.83;50.68;;
66463;Laerm;56827;52.178;4.500;2023-06-14T00:25:44;45.43;33.54;51.75;;
66463;Laerm;56827;52.178;4.500;2023-06-14T00:25:54;43.04;33.54;50.56;;
66463;Laerm;56827;52.178;4.500;2023-06-14T00:26:04;42.61;33.65;49.23;;
66463;Laerm;56827;52.178;4.500;2023-06-14T00:26:15;39.83;33.15;46.39;;
66463;Laerm;56827;52.178;4.500;2023-06-14T00:26:25;38.35;33.83;44.88;;
66463;Laerm;56827;52.178;4.500;2023-06-14T00:26:36;43.81;34.92;53.18;;
66463;Laerm;56827;52.178;4.500;2023-06-14T00:26:46;43.83;38.25;50.03;;
66463;Laerm;56827;52.178;4.500;2023-06-14T00:26:57;42.15;35.82;49.81;;
66463;Laerm;56827;52.178;4.500;2023-06-14T00:27:07;43.34;35.07;48.86;;
66463;Laerm;56827;52.178;4.500;2023-06-14T00:27:17;43.24;34.86;49.52;;
66463;Laerm;56827;52.178;4.500;2023-06-14T00:27:27;42.54;33.91;49.65;;
66463;Laerm;56827;52.178;4.500;2023-06-14T00:27:38;42.62;32.42;48.70;;
66463;Laerm;56827;52.178;4.500;2023-06-14T00:27:48;44.27;33.63;50.76;;
66463;Laerm;56827;52.178;4.500;2023-06-14T00:27:58;41.83;34.52;47.37;;
66463;Laerm;56827;52.178;4.500;2023-06-14T00:28:08;40.30;37.29;44.12;;
66463;Laerm;56827;52.178;4.500;2023-06-14T00:28:19;35.48;32.83;37.74;;
66463;Laerm;56827;52.178;4.500;2023-06-14T00:28:29;34.43;32.61;35.90;;
66463;Laerm;56827;52.178;4.500;2023-06-14T00:28:39;35.80;34.53;37.05;;
66463;Laerm;56827;52.178;4.500;2023-06-14T00:28:50;35.41;33.86;38.97;;
66463;Laerm;56827;52.178;4.500;2023-06-14T00:29:01;41.34;33.99;57.19;;
66463;Laerm;56827;52.178;4.500;2023-06-14T00:29:11;38.32;34.11;48.71;;
66463;Laerm;56827;52.178;4.500;2023-06-14T00:29:21;37.73;33.34;48.48;;
66463;Laerm;56827;52.178;4.500;2023-06-14T00:29:31;40.16;34.22;48.52;;
66463;Laerm;56827;52.178;4.500;2023-06-14T00:29:41;46.32;34.03;53.16;;
66463;Laerm;56827;52.178;4.500;2023-06-14T00:29:52;45.90;36.42;51.71;;
66463;Laerm;56827;52.178;4.500;2023-06-14T00:30:02;46.02;39.17;52.31;;
66463;Laerm;56827;52.178;4.500;2023-06-14T00:30:12;40.08;35.93;46.95;;
66463;Laerm;56827;52.178;4.500;2023-06-14T00:30:23;35.93;33.99;41.35;;
66463;Laerm;56827;52.178;4.500;2023-06-14T00:30:33;36.04;33.27;46.52;;
66463;Laerm;56827;52.178;4.500;2023-06-14T00:30:44;37.22;34.92;39.08;;
66463;Laerm;56827;52.178;4.500;2023-06-14T00:30:56;38.00;35.36;41.15;;
66463;Laerm;56827;52.178;4.500;2023-06-14T00:31:06;39.72;37.14;45.51;;
66463;Laerm;56827;52.178;4.500;2023-06-14T00:31:17;43.65;38.05;48.65;;
66463;Laerm;56827;52.178;4.500;2023-06-14T00:31:27;45.94;37.13;53.19;;
66463;Laerm;56827;52.178;4.500;2023-06-14T00:31:37;44.39;36.52;52.15;;
66463;Laerm;56827;52.178;4.500;2023-06-14T00:31:47;42.21;35.29;48.09;;
66463;Laerm;56827;52.178;4.500;2023-06-14T00:31:58;42.28;34.43;48.71;;
66463;Laerm;56827;52.178;4.500;2023-06-14T00:32:08;43.98;36.43;48.83;;
66463;Laerm;56827;52.178;4.500;2023-06-14T00:32:18;45.81;41.25;51.74;;
66463;Laerm;56827;52.178;4.500;2023-06-14T00:32:28;44.56;40.12;51.25;;
66463;Laerm;56827;52.178;4.500;2023-06-14T00:32:39;41.41;38.32;45.83;;
66463;Laerm;56827;52.178;4.500;2023-06-14T00:32:50;42.56;38.10;49.80;;
66463;Laerm;56827;52.178;4.500;2023-06-14T00:33:01;45.03;36.95;51.64;;
66463;Laerm;56827;52.178;4.500;2023-06-14T00:33:11;42.57;38.53;48.63;;
66463;Laerm;56827;52.178;4.500;2023-06-14T00:33:21;43.38;38.56;48.36;;
66463;Laerm;56827;52.178;4.500;2023-06-14T00:33:32;42.78;35.22;49.25;;
66463;Laerm;56827;52.178;4.500;2023-06-14T00:33:42;43.52;36.35;49.71;;
66463;Laerm;56827;52.178;4.500;2023-06-14T00:33:52;44.16;34.66;48.17;;
66463;Laerm;56827;52.178;4.500;2023-06-14T00:34:02;43.46;32.47;51.66;;
66463;Laerm;56827;52.178;4.500;2023-06-14T00:34:13;38.45;32.79;48.35;;
66463;Laerm;56827;52.178;4.500;2023-06-14T00:34:23;40.66;34.20;46.48;;
66463;Laerm;56827;52.178;4.500;2023-06-14T00:34:33;43.74;36.14;51.98;;
66463;Laerm;56827;52.178;4.500;2023-06-14T00:34:43;43.75;34.52;53.13;;
66463;Laerm;56827;52.178;4.500;2023-06-14T00:34:54;43.78;36.62;49.81;;
66463;Laerm;56827;52.178;4.500;2023-06-14T00:35:04;44.82;39.55;49.91;;
66463;Laerm;56827;52.178;4.500;2023-06-14T00:35:14;44.93;39.26;50.12;;
66463;Laerm;56827;52.178;4.500;2023-06-14T00:35:25;44.66;39.18;49.89;;
66463;Laerm;56827;52.178;4.500;2023-06-14T00:35:35;46.79;40.96;52.38;;
66463;Laerm;56827;52.178;4.500;2023-06-14T00:35:45;41.52;36.69;48.69;;
66463;Laerm;56827;52.178;4.500;2023-06-14T00:35:57;39.23;36.26;41.79;;
66463;Laerm;56827;52.178;4.500;2023-06-14T00:36:07;42.02;39.90;45.52;;
66463;Laerm;56827;52.178;4.500;2023-06-14T00:36:17;39.92;36.63;48.75;;
66463;Laerm;56827;52.178;4.500;2023-06-14T00:36:27;39.83;36.91;47.75;;
66463;Laerm;56827;52.178;4.500;2023-06-14T00:36:37;44.48;35.34;54.51;;
66463;Laerm;56827;52.178;4.500;2023-06-14T00:36:48;44.68;35.40;50.70;;
66463;Laerm;56827;52.178;4.500;2023-06-14T00:36:58;44.07;36.49;51.47;;
66463;Laerm;56827;52.178;4.500;2023-06-14T00:37:08;43.30;36.75;50.68;;
66463;Laerm;56827;52.178;4.500;2023-06-14T00:37:19;42.11;33.44;48.38;;
66463;Laerm;56827;52.178;4.500;2023-06-14T00:37:29;42.41;33.14;49.01;;
66463;Laerm;56827;52.178;4.500;2023-06-14T00:37:39;43.69;33.39;50.42;;
66463;Laerm;56827;52.178;4.500;2023-06-14T00:37:50;44.41;34.79;50.59;;
66463;Laerm;56827;52.178;4.500;2023-06-14T00:38:00;46.39;34.25;51.99;;
66463;Laerm;56827;52.178;4.500;2023-06-14T00:38:11;43.78;34.53;49.55;;
66463;Laerm;56827;52.178;4.500;2023-06-14T00:38:21;41.30;34.55;50.13;;
66463;Laerm;56827;52.178;4.500;2023-06-14T00:38:32;37.62;34.46;47.40;;
66463;Laerm;56827;52.178;4.500;2023-06-14T00:38:42;38.03;34.55;48.29;;
66463;Laerm;56827;52.178;4.500;2023-06-14T00:38:52;42.84;36.92;50.36;;
66463;Laerm;56827;52.178;4.500;2023-06-14T00:39:02;45.32;37.53;50.81;;
66463;Laerm;56827;52.178;4.500;2023-06-14T00:39:13;47.10;42.11;52.57;;
66463;Laerm;56827;52.178;4.500;2023-06-14T00:39:24;44.04;37.04;54.49;;
66463;Laerm;56827;52.178;4.500;2023-06-14T00:39:34;43.21;33.51;50.23;;
66463;Laerm;56827;52.178;4.500;2023-06-14T00:39:44;43.20;33.98;49.39;;
66463;Laerm;56827;52.178;4.500;2023-06-14T00:39:55;45.08;35.55;50.18;;
66463;Laerm;56827;52.178;4.500;2023-06-14T00:40:05;41.06;33.11;47.75;;
66463;Laerm;56827;52.178;4.500;2023-06-14T00:40:15;41.51;32.78;47.76;;
66463;Laerm;56827;52.178;4.500;2023-06-14T00:40:26;41.81;37.63;49.45;;
66463;Laerm;56827;52.178;4.500;2023-06-14T00:40:36;38.37;34.33;45.97;;
66463;Laerm;56827;52.178;4.500;2023-06-14T00:40:46;35.75;33.19;42.90;;
66463;Laerm;56827;52.178;4.500;2023-06-14T00:40:56;39.43;34.08;46.99;;
66463;Laerm;56827;52.178;4.500;2023-06-14T00:41:07;43.57;37.00;50.89;;
66463;Laerm;56827;52.178;4.500;2023-06-14T00:41:17;42.86;33.30;49.46;;
66463;Laerm;56827;52.178;4.500;2023-06-14T00:41:27;45.64;36.03;51.16;;
66463;Laerm;56827;52.178;4.500;2023-06-14T00:41:37;43.41;31.46;49.90;;
66463;Laerm;56827;52.178;4.500;2023-06-14T00:41:48;44.62;33.35;52.34;;
66463;Laerm;56827;52.178;4.500;2023-06-14T00:41:58;44.28;33.35;51.16;;
66463;Laerm;56827;52.178;4.500;2023-06-14T00:42:09;43.16;31.91;48.32;;
66463;Laerm;56827;52.178;4.500;2023-06-14T00:42:26;44.78;32.33;50.51;;
66463;Laerm;56827;52.178;4.500;2023-06-14T00:42:36;40.90;31.63;50.28;;
66463;Laerm;56827;52.178;4.500;2023-06-14T00:42:47;33.91;31.60;44.20;;
66463;Laerm;56827;52.178;4.500;2023-06-14T00:42:57;35.32;31.73;41.59;;
66463;Laerm;56827;52.178;4.500;2023-06-14T00:43:07;36.88;35.01;45.45;;
66463;Laerm;56827;52.178;4.500;2023-06-14T00:43:17;36.47;34.35;42.26;;
66463;Laerm;56827;52.178;4.500;2023-06-14T00:43:28;36.57;34.84;43.77;;
66463;Laerm;56827;52.178;4.500;2023-06-14T00:43:38;37.76;34.73;42.28;;
66463;Laerm;56827;52.178;4.500;2023-06-14T00:43:48;35.83;33.59;43.55;;
66463;Laerm;56827;52.178;4.500;2023-06-14T00:43:58;35.74;32.87;44.87;;
66463;Laerm;56827;52.178;4.500;2023-06-14T00:44:09;34.01;32.15;41.62;;
66463;Laerm;56827;52.178;4.500;2023-06-14T00:44:20;37.85;32.23;46.82;;
66463;Laerm;56827;52.178;4.500;2023-06-14T00:44:31;38.89;35.08;51.27;;
66463;Laerm;56827;52.178;4.500;2023-06-14T00:44:41;35.94;32.24;47.89;;
66463;Laerm;56827;52.178;4.500;2023-06-14T00:44:52;35.37;31.61;47.19;;
66463;Laerm;56827;52.178;4.500;2023-06-14T00:45:02;42.34;33.92;51.79;;
66463;Laerm;56827;52.178;4.500;2023-06-14T00:45:13;44.61;37.81;51.33;;
66463;Laerm;56827;52.178;4.500;2023-06-14T00:45:23;45.79;34.62;52.92;;
66463;Laerm;56827;52.178;4.500;2023-06-14T00:45:33;41.93;31.48;50.73;;
66463;Laerm;56827;52.178;4.500;2023-06-14T00:45:45;33.90;30.89;43.89;;
66463;Laerm;56827;52.178;4.500;2023-06-14T00:45:56;32.26;30.92;33.36;;
66463;Laerm;56827;52.178;4.500;2023-06-14T00:46:06;32.38;31.00;33.96;;
66463;Laerm;56827;52.178;4.500;2023-06-14T00:46:17;32.43;30.72;38.07;;
66463;Laerm;56827;52.178;4.500;2023-06-14T00:46:27;35.75;31.37;42.20;;
66463;Laerm;56827;52.178;4.500;2023-06-14T00:46:37;36.13;32.19;44.39;;
66463;Laerm;56827;52.178;4.500;2023-06-14T00:46:48;34.53;32.57;44.12;;
66463;Laerm;56827;52.178;4.500;2023-06-14T00:46:58;39.00;34.25;43.52;;
66463;Laerm;56827;52.178;4.500;2023-06-14T00:47:08;38.09;35.05;47.06;;
66463;Laerm;56827;52.178;4.500;2023-06-14T00:47:18;43.29;39.04;50.69;;
66463;Laerm;56827;52.178;4.500;2023-06-14T00:47:29;46.70;36.44;51.46;;
66463;Laerm;56827;52.178;4.500;2023-06-14T00:47:40;46.07;35.67;55.03;;
66463;Laerm;56827;52.178;4.500;2023-06-14T00:47:51;41.00;32.61;49.90;;
66463;Laerm;56827;52.178;4.500;2023-06-14T00:48:05;35.32;32.27;46.43;;
66463;Laerm;56827;52.178;4.500;2023-06-14T00:48:16;35.61;32.21;45.57;;
66463;Laerm;56827;52.178;4.500;2023-06-14T00:48:27;36.28;32.76;45.80;;
66463;Laerm;56827;52.178;4.500;2023-06-14T00:48:38;36.96;33.77;48.81;;
66463;Laerm;56827;52.178;4.500;2023-06-14T00:48:49;41.32;35.46;49.62;;
66463;Laerm;56827;52.178;4.500;2023-06-14T00:49:00;44.45;33.77;51.05;;
66463;Laerm;56827;52.178;4.500;2023-06-14T00:49:11;41.56;33.26;50.45;;
66463;Laerm;56827;52.178;4.500;2023-06-14T00:49:22;42.54;32.54;49.98;;
66463;Laerm;56827;52.178;4.500;2023-06-14T00:49:32;44.24;33.91;50.49;;
66463;Laerm;56827;52.178;4.500;2023-06-14T00:49:44;42.34;32.11;49.78;;
66463;Laerm;56827;52.178;4.500;2023-06-14T00:49:55;36.23;31.28;46.98;;
66463;Laerm;56827;52.178;4.500;2023-06-14T00:50:06;34.47;32.39;42.88;;
66463;Laerm;56827;52.178;4.500;2023-06-14T00:50:17;35.55;32.08;46.89;;
66463;Laerm;56827;52.178;4.500;2023-06-14T00:50:28;35.88;32.43;46.84;;
66463;Laerm;56827;52.178;4.500;2023-06-14T00:50:38;35.03;32.23;46.80;;
66463;Laerm;56827;52.178;4.500;2023-06-14T00:50:50;33.74;32.02;36.10;;
66463;Laerm;56827;52.178;4.500;2023-06-14T00:51:02;34.15;32.03;41.65;;
66463;Laerm;56827;52.178;4.500;2023-06-14T00:51:13;34.22;32.42;41.87;;
66463;Laerm;56827;52.178;4.500;2023-06-14T00:51:24;34.90;31.95;46.73;;
66463;Laerm;56827;52.178;4.500;2023-06-14T00:51:34;33.90;31.97;44.25;;
66463;Laerm;56827;52.178;4.500;2023-06-14T00:51:44;38.84;32.19;50.62;;
66463;Laerm;56827;52.178;4.500;2023-06-14T00:51:55;42.78;32.71;52.18;;
66463;Laerm;56827;52.178;4.500;2023-06-14T00:52:05;42.59;33.39;50.74;;
66463;Laerm;56827;52.178;4.500;2023-06-14T00:52:16;38.15;32.02;51.32;;
66463;Laerm;56827;52.178;4.500;2023-06-14T00:52:27;37.24;35.01;44.30;;
66463;Laerm;56827;52.178;4.500;2023-06-14T00:52:37;36.74;35.36;38.76;;
66463;Laerm;56827;52.178;4.500;2023-06-14T00:52:48;34.89;33.11;36.34;;
66463;Laerm;56827;52.178;4.500;2023-06-14T00:52:59;34.73;33.18;40.27;;
66463;Laerm;56827;52.178;4.500;2023-06-14T00:53:09;36.37;34.41;37.81;;
66463;Laerm;56827;52.178;4.500;2023-06-14T00:53:20;35.16;33.41;37.26;;
66463;Laerm;56827;52.178;4.500;2023-06-14T00:53:32;34.68;32.04;37.38;;
66463;Laerm;56827;52.178;4.500;2023-06-14T00:53:45;33.98;32.30;38.24;;
66463;Laerm;56827;52.178;4.500;2023-06-14T00:53:58;36.28;34.12;38.89;;
66463;Laerm;56827;52.178;4.500;2023-06-14T00:54:09;35.97;34.04;39.19;;
66463;Laerm;56827;52.178;4.500;2023-06-14T00:54:19;35.74;33.89;40.66;;
66463;Laerm;56827;52.178;4.500;2023-06-14T00:54:29;34.78;32.64;37.23;;
66463;Laerm;56827;52.178;4.500;2023-06-14T00:54:40;34.02;32.13;36.43;;
66463;Laerm;56827;52.178;4.500;2023-06-14T00:54:50;34.83;32.92;36.99;;
66463;Laerm;56827;52.178;4.500;2023-06-14T00:55:00;34.95;33.09;38.25;;
66463;Laerm;56827;52.178;4.500;2023-06-14T00:55:11;35.48;33.71;44.53;;
66463;Laerm;56827;52.178;4.500;2023-06-14T00:55:21;33.83;32.13;35.56;;
66463;Laerm;56827;52.178;4.500;2023-06-14T00:55:31;34.02;31.76;41.64;;
66463;Laerm;56827;52.178;4.500;2023-06-14T00:55:43;36.94;33.06;44.07;;
66463;Laerm;56827;52.178;4.500;2023-06-14T00:55:53;36.67;33.76;44.94;;
66463;Laerm;56827;52.178;4.500;2023-06-14T00:56:03;35.24;33.33;37.55;;
66463;Laerm;56827;52.178;4.500;2023-06-14T00:56:14;35.16;33.37;38.39;;
66463;Laerm;56827;52.178;4.500;2023-06-14T00:56:24;38.98;33.34;43.35;;
66463;Laerm;56827;52.178;4.500;2023-06-14T00:56:38;40.99;39.72;42.52;;
66463;Laerm;56827;52.178;4.500;2023-06-14T00:56:49;41.40;36.42;50.59;;
66463;Laerm;56827;52.178;4.500;2023-06-14T00:56:59;45.88;39.74;51.32;;
66463;Laerm;56827;52.178;4.500;2023-06-14T00:57:10;46.05;37.99;53.93;;
66463;Laerm;56827;52.178;4.500;2023-06-14T00:57:21;42.52;32.70;52.61;;
66463;Laerm;56827;52.178;4.500;2023-06-14T00:57:31;38.37;31.92;48.65;;
66463;Laerm;56827;52.178;4.500;2023-06-14T00:57:41;35.82;32.21;47.06;;
66463;Laerm;56827;52.178;4.500;2023-06-14T00:57:52;41.79;34.70;49.81;;
66463;Laerm;56827;52.178;4.500;2023-06-14T00:58:02;40.23;36.77;43.74;;
66463;Laerm;56827;52.178;4.500;2023-06-14T00:58:13;40.69;37.93;46.57;;
66463;Laerm;56827;52.178;4.500;2023-06-14T00:58:23;38.15;35.17;44.97;;
66463;Laerm;56827;52.178;4.500;2023-06-14T00:58:34;41.80;34.30;48.98;;
66463;Laerm;56827;52.178;4.500;2023-06-14T00:58:44;45.48;34.48;51.63;;
66463;Laerm;56827;52.178;4.500;2023-06-14T00:58:55;43.34;34.79;50.26;;
66463;Laerm;56827;52.178;4.500;2023-06-14T00:59:06;43.80;34.06;50.23;;
66463;Laerm;56827;52.178;4.500;2023-06-14T00:59:16;43.49;33.98;51.44;;
66463;Laerm;56827;52.178;4.500;2023-06-14T00:59:26;43.54;32.35;50.84;;
66463;Laerm;56827;52.178;4.500;2023-06-14T00:59:40;42.41;33.90;47.93;;
66463;Laerm;56827;52.178;4.500;2023-06-14T00:59:52;42.82;35.19;52.64;;
66463;Laerm;56827;52.178;4.500;2023-06-14T01:00:02;39.25;32.61;49.57;;
66463;Laerm;56827;52.178;4.500;2023-06-14T01:00:14;39.57;32.02;49.19;;